createdAt,value
2018-06-23T00:01:11.176Z,99053.78
2018-06-23T00:03:40.252Z,99052.09
2018-06-23T00:06:09.342Z,99054.27
2018-06-23T00:08:38.442Z,99054.52
2018-06-23T00:11:07.563Z,99049.44
2018-06-23T00:13:36.649Z,99052.53
2018-06-23T00:16:06.103Z,99062.89
2018-06-23T00:18:35.222Z,99057.27
2018-06-23T00:21:04.307Z,99059.14
2018-06-23T00:23:33.494Z,99055.45
2018-06-23T00:26:38.206Z,99066.38
2018-06-23T00:29:07.023Z,99065.88
2018-06-23T00:31:36.252Z,99069.25
2018-06-23T00:34:05.593Z,99079.55
2018-06-23T00:36:34.709Z,99075.53
2018-06-23T00:39:03.907Z,99065.70
2018-06-23T00:41:33.015Z,99066.36
2018-06-23T00:44:02.314Z,99068.58
2018-06-23T00:46:31.379Z,99066.89
2018-06-23T00:49:00.586Z,99067.13
2018-06-23T00:51:29.695Z,99065.67
2018-06-23T00:53:58.823Z,99064.12
2018-06-23T00:56:28.266Z,99067.20
2018-06-23T00:59:14.242Z,99064.06
2018-06-23T01:01:43.315Z,99062.89
2018-06-23T01:04:12.408Z,99057.07
2018-06-23T01:06:41.467Z,99054.78
2018-06-23T01:09:10.968Z,99056.61
2018-06-23T01:11:40.041Z,99058.23
2018-06-23T01:14:09.116Z,99050.72
2018-06-23T01:16:38.202Z,99059.49
2018-06-23T01:19:07.268Z,99050.80
2018-06-23T01:21:36.504Z,99049.81
2018-06-23T01:24:05.667Z,99048.96
2018-06-23T01:26:35.038Z,99047.85
2018-06-23T01:29:04.235Z,99047.80
2018-06-23T01:31:33.518Z,99050.92
2018-06-23T01:34:02.776Z,99051.34
2018-06-23T01:36:32.347Z,99045.15
2018-06-23T01:39:01.705Z,99047.18
2018-06-23T01:41:31.518Z,99048.03
2018-06-23T01:44:01.240Z,99043.75
2018-06-23T01:46:30.975Z,99041.42
2018-06-23T01:49:00.255Z,99040.64
2018-06-23T01:51:30.166Z,99037.34
2018-06-23T01:53:59.553Z,99033.58
2018-06-23T01:56:28.912Z,99032.02
2018-06-23T01:58:58.363Z,99026.83
2018-06-23T02:01:27.928Z,99025.34
2018-06-23T02:03:57.224Z,99030.66
2018-06-23T02:06:26.415Z,99027.05
2018-06-23T02:08:55.867Z,99037.43
2018-06-23T02:11:25.102Z,99034.98
2018-06-23T02:13:59.607Z,99036.95
2018-06-23T02:16:34.564Z,99032.55
2018-06-23T02:19:09.129Z,99032.05
2018-06-23T02:21:43.571Z,99028.92
2018-06-23T02:24:18.043Z,99035.16
2018-06-23T02:26:52.503Z,99041.03
2018-06-23T02:29:26.972Z,99041.83
2018-06-23T02:32:01.835Z,99040.46
2018-06-23T02:34:36.587Z,99041.84
2018-06-23T02:37:06.303Z,99046.71
2018-06-23T02:39:36.179Z,99041.03
2018-06-23T02:42:05.908Z,99044.23
2018-06-23T02:44:35.131Z,99043.44
2018-06-23T02:47:04.374Z,99040.95
2018-06-23T02:49:33.953Z,99044.55
2018-06-23T02:52:03.045Z,99045.42
2018-06-23T02:54:32.150Z,99046.96
2018-06-23T02:57:01.485Z,99051.75
2018-06-23T02:59:30.623Z,99059.30
2018-06-23T03:01:59.827Z,99057.37
2018-06-23T03:04:28.915Z,99055.46
2018-06-23T03:06:58.182Z,99057.24
2018-06-23T03:09:28.410Z,99056.94
2018-06-23T03:11:57.528Z,99064.37
2018-06-23T03:14:26.870Z,99066.02
2018-06-23T03:16:55.971Z,99061.38
2018-06-23T03:19:25.038Z,99063.58
2018-06-23T03:21:54.162Z,99071.17
2018-06-23T03:24:23.371Z,99067.38
2018-06-23T03:26:52.506Z,99067.06
2018-06-23T03:29:21.694Z,99071.84
2018-06-23T03:31:50.575Z,99072.08
2018-06-23T03:34:19.820Z,99081.53
2018-06-23T03:36:50.426Z,99073.89
2018-06-23T03:39:19.587Z,99069.95
2018-06-23T03:41:48.786Z,99073.47
2018-06-23T03:44:17.931Z,99075.31
2018-06-23T03:46:47.039Z,99079.15
2018-06-23T03:49:16.194Z,99081.75
2018-06-23T03:51:45.405Z,99082.17
2018-06-23T03:54:14.948Z,99074.34
2018-06-23T03:56:44.482Z,99071.66
2018-06-23T03:59:14.469Z,99070.46
2018-06-23T04:01:43.575Z,99069.84
2018-06-23T04:04:12.687Z,99069.59
2018-06-23T04:06:41.807Z,99062.66
2018-06-23T04:09:11.610Z,99064.54
2018-06-23T04:11:40.739Z,99071.84
2018-06-23T04:14:10.205Z,99068.94
2018-06-23T04:16:39.300Z,99064.28
2018-06-23T04:19:08.874Z,99062.17
2018-06-23T04:21:38.195Z,99053.63
2018-06-23T04:24:07.798Z,99063.83
2018-06-23T04:26:36.905Z,99072.40
2018-06-23T04:29:06.224Z,99078.30
2018-06-23T04:31:35.691Z,99078.44
2018-06-23T04:34:04.900Z,99080.35
2018-06-23T04:36:34.007Z,99081.46
2018-06-23T04:39:03.163Z,99081.32
2018-06-23T04:41:32.446Z,99089.47
2018-06-23T04:44:01.610Z,99094.81
2018-06-23T04:46:30.786Z,99100.00
2018-06-23T04:49:00.651Z,99090.86
2018-06-23T04:51:29.771Z,99093.42
2018-06-23T04:53:58.858Z,99094.50
2018-06-23T04:56:27.953Z,99088.58
2018-06-23T04:58:57.274Z,99093.00
2018-06-23T05:01:26.370Z,99092.53
2018-06-23T05:03:55.504Z,99089.95
2018-06-23T05:06:24.594Z,99093.13
2018-06-23T05:08:59.207Z,99097.59
2018-06-23T05:11:28.286Z,99099.63
2018-06-23T05:13:58.126Z,99098.45
2018-06-23T05:16:27.243Z,99103.89
2018-06-23T05:18:57.008Z,99098.60
2018-06-23T05:21:26.234Z,99109.78
2018-06-23T05:23:55.942Z,99105.73
2018-06-23T05:26:25.474Z,99108.76
2018-06-23T05:28:55.250Z,99113.88
2018-06-23T05:31:24.518Z,99107.86
2018-06-23T05:33:54.242Z,99107.37
2018-06-23T05:36:24.382Z,99106.72
2018-06-23T05:38:53.902Z,99106.57
2018-06-23T05:41:23.226Z,99099.78
2018-06-23T05:46:47.679Z,99101.98
2018-06-23T05:49:16.938Z,99110.06
2018-06-23T05:51:46.612Z,99100.42
2018-06-23T05:54:16.279Z,99104.45
2018-06-23T05:56:45.635Z,99102.26
2018-06-23T05:59:15.466Z,99100.44
2018-06-23T06:01:44.555Z,99098.02
2018-06-23T06:04:13.694Z,99094.94
2018-06-23T06:06:42.812Z,99094.31
2018-06-23T06:09:11.931Z,99095.95
2018-06-23T06:11:41.101Z,99097.98
2018-06-23T06:14:10.131Z,99104.64
2018-06-23T06:17:43.597Z,99107.30
2018-06-23T06:20:13.939Z,99106.53
2018-06-23T06:22:46.891Z,99100.34
2018-06-23T06:25:16.629Z,99099.14
2018-06-23T06:27:45.710Z,99094.58
2018-06-23T06:30:14.819Z,99094.54
2018-06-23T06:32:43.919Z,99088.64
2018-06-23T06:35:13.007Z,99092.94
2018-06-23T06:37:42.167Z,99092.38
2018-06-23T06:40:11.243Z,99093.02
2018-06-23T06:42:40.342Z,99089.93
2018-06-23T06:45:09.671Z,99088.25
2018-06-23T06:47:38.934Z,99083.97
2018-06-23T06:50:08.143Z,99086.58
2018-06-23T06:52:37.439Z,99083.41
2018-06-23T06:55:06.686Z,99086.22
2018-06-23T06:57:36.005Z,99086.90
2018-06-23T07:00:06.639Z,99082.86
2018-06-23T07:02:35.818Z,99082.29
2018-06-23T07:05:05.452Z,99084.59
2018-06-23T07:07:34.547Z,99085.28
2018-06-23T07:10:03.688Z,99078.98
2018-06-23T07:12:32.782Z,99087.41
2018-06-23T07:15:01.896Z,99081.00
2018-06-23T07:17:31.242Z,99081.05
2018-06-23T07:20:00.323Z,99081.28
2018-06-23T07:22:29.417Z,99083.30
2018-06-23T07:24:58.558Z,99080.74
2018-06-23T07:27:27.659Z,99075.52
2018-06-23T07:29:56.734Z,99079.47
2018-06-23T07:32:25.851Z,99073.97
2018-06-23T07:34:55.058Z,99069.44
2018-06-23T07:37:24.039Z,99067.00
2018-06-23T07:39:53.163Z,99069.33
2018-06-23T07:42:22.262Z,99063.69
2018-06-23T07:44:51.358Z,99077.19
2018-06-23T07:47:20.551Z,99070.46
2018-06-23T07:49:49.882Z,99064.83
2018-06-23T07:52:19.160Z,99063.42
2018-06-23T07:54:48.466Z,99066.66
2018-06-23T07:57:17.743Z,99065.35
2018-06-23T07:59:47.354Z,99053.81
2018-06-23T08:02:16.670Z,99062.17
2018-06-23T08:04:45.914Z,99068.22
2018-06-23T08:07:15.182Z,99057.08
2018-06-23T08:09:44.502Z,99058.03
2018-06-23T08:12:13.804Z,99054.62
2018-06-23T08:14:43.078Z,99054.80
2018-06-23T08:17:12.494Z,99049.43
2018-06-23T08:19:41.813Z,99048.61
2018-06-23T08:22:11.073Z,99041.41
2018-06-23T08:24:40.370Z,99040.42
2018-06-23T08:27:09.671Z,99048.80
2018-06-23T08:29:38.931Z,99042.51
2018-06-23T08:32:08.239Z,99042.54
2018-06-23T08:34:38.018Z,99042.45
2018-06-23T08:37:07.409Z,99028.45
2018-06-23T08:39:36.763Z,99035.14
2018-06-23T08:42:06.106Z,99034.67
2018-06-23T08:44:35.538Z,99031.61
2018-06-23T08:47:04.439Z,99039.34
2018-06-23T08:49:33.560Z,99035.84
2018-06-23T08:52:02.667Z,99029.58
2018-06-23T08:54:31.779Z,99043.97
2018-06-23T08:57:00.889Z,99032.23
2018-06-23T08:59:29.945Z,99028.07
2018-06-23T09:01:59.058Z,99029.91
2018-06-23T09:04:28.249Z,99036.00
2018-06-23T09:06:57.705Z,99033.81
2018-06-23T09:09:27.112Z,99035.17
2018-06-23T09:11:55.966Z,99030.17
2018-06-23T09:14:25.070Z,99031.36
2018-06-23T09:16:54.645Z,99033.73
2018-06-23T09:19:23.721Z,99036.56
2018-06-23T09:21:52.835Z,99036.73
2018-06-23T09:24:21.943Z,99035.92
2018-06-23T09:26:51.081Z,99024.69
2018-06-23T09:29:20.187Z,99027.04
2018-06-23T09:31:49.330Z,99023.67
2018-06-23T09:34:18.534Z,99031.33
2018-06-23T09:36:47.655Z,99020.77
2018-06-23T09:39:16.762Z,99022.02
2018-06-23T09:41:45.858Z,99017.73
2018-06-23T09:44:14.963Z,99015.70
2018-06-23T09:46:44.257Z,99020.41
2018-06-23T09:49:13.393Z,99029.67
2018-06-23T09:51:42.610Z,99027.36
2018-06-23T09:54:12.398Z,99026.27
2018-06-23T09:56:41.718Z,99036.20
2018-06-23T09:59:11.319Z,99035.63
2018-06-23T10:01:41.346Z,99034.23
2018-06-23T10:04:11.747Z,99039.42
2018-06-23T10:06:40.882Z,99034.39
2018-06-23T10:09:11.043Z,99040.55
2018-06-23T10:11:40.119Z,99043.59
2018-06-23T10:14:09.223Z,99035.01
2018-06-23T10:16:38.306Z,99042.70
2018-06-23T10:19:07.434Z,99042.27
2018-06-23T10:21:36.680Z,99043.32
2018-06-23T10:24:06.576Z,99041.64
2018-06-23T10:26:35.906Z,99037.59
2018-06-23T10:29:05.475Z,99038.77
2018-06-23T10:31:35.274Z,99037.02
2018-06-23T10:34:06.253Z,99033.48
2018-06-23T10:36:35.330Z,99025.50
2018-06-23T10:39:07.399Z,99031.15
2018-06-23T10:41:37.088Z,99023.53
2018-06-23T10:44:07.914Z,99030.94
2018-06-23T10:46:37.150Z,99029.47
2018-06-23T10:49:07.700Z,99032.33
2018-06-23T10:51:37.543Z,99026.34
2018-06-23T10:54:06.634Z,99029.49
2018-06-23T10:56:36.207Z,99024.56
2018-06-23T10:59:06.079Z,99028.63
2018-06-23T11:01:36.056Z,99031.94
2018-06-23T11:04:05.377Z,99021.75
2018-06-23T11:06:35.402Z,99023.60
2018-06-23T11:09:06.543Z,99032.36
2018-06-23T11:11:36.494Z,99026.34
2018-06-23T11:14:07.230Z,99011.64
2018-06-23T11:16:36.405Z,99005.45
2018-06-23T11:19:05.534Z,99007.75
2018-06-23T11:21:34.759Z,99008.31
2018-06-23T11:24:03.850Z,99011.01
2018-06-23T11:26:33.477Z,99008.38
2018-06-23T11:29:02.695Z,99000.38
2018-06-23T11:31:31.791Z,99000.05
2018-06-23T11:34:00.899Z,98995.95
2018-06-23T11:36:30.201Z,98991.88
2018-06-23T11:38:59.393Z,98998.45
2018-06-23T11:41:28.806Z,98987.20
2018-06-23T11:43:57.954Z,98990.42
2018-06-23T11:46:27.055Z,98984.53
2018-06-23T11:48:56.277Z,98984.72
2018-06-23T11:51:25.407Z,98975.30
2018-06-23T11:53:54.371Z,98974.66
2018-06-23T11:56:23.722Z,98983.88
2018-06-23T11:58:53.327Z,98975.89
2018-06-23T12:01:22.739Z,98965.42
2018-06-23T12:03:52.422Z,98967.72
2018-06-23T12:06:25.015Z,98977.04
2018-06-23T12:08:56.046Z,98959.28
2018-06-23T12:11:25.332Z,98958.76
2018-06-23T12:13:55.363Z,98959.53
2018-06-23T12:16:24.518Z,98952.77
2018-06-23T12:18:53.814Z,98954.95
2018-06-23T12:21:22.902Z,98955.53
2018-06-23T12:23:52.500Z,98948.94
2018-06-23T12:26:21.615Z,98947.75
2018-06-23T12:28:50.768Z,98942.77
2018-06-23T12:31:19.883Z,98939.42
2018-06-23T12:33:49.003Z,98933.20
2018-06-23T12:36:20.458Z,98925.91
2018-06-23T12:38:49.594Z,98929.88
2018-06-23T12:41:18.707Z,98929.20
2018-06-23T12:43:47.811Z,98931.66
2018-06-23T12:46:16.929Z,98929.45
2018-06-23T12:48:48.493Z,98923.03
2018-06-23T12:51:18.415Z,98928.14
2018-06-23T12:53:48.359Z,98930.83
2018-06-23T12:56:19.032Z,98914.96
2018-06-23T12:58:48.486Z,98921.06
2018-06-23T13:01:18.185Z,98903.00
2018-06-23T13:03:47.974Z,98906.62
2018-06-23T13:06:18.003Z,98901.13
2018-06-23T13:08:47.878Z,98891.77
2018-06-23T13:11:18.183Z,98887.72
2018-06-23T13:13:47.276Z,98882.67
2018-06-23T13:16:16.403Z,98897.89
2018-06-23T13:18:45.519Z,98894.17
2018-06-23T13:21:14.661Z,98878.38
2018-06-23T13:23:43.955Z,98879.21
2018-06-23T13:26:13.038Z,98886.22
2018-06-23T13:28:42.169Z,98879.94
2018-06-23T13:31:11.567Z,98877.34
2018-06-23T13:33:41.262Z,98888.34
2018-06-23T13:36:12.016Z,98878.13
2018-06-23T13:38:40.885Z,98873.98
2018-06-23T13:41:10.009Z,98869.33
2018-06-23T13:43:39.746Z,98865.27
2018-06-23T13:46:08.879Z,98867.75
2018-06-23T13:48:37.982Z,98860.16
2018-06-23T13:51:07.890Z,98855.81
2018-06-23T13:53:38.040Z,98857.34
2018-06-23T13:56:07.408Z,98854.95
2018-06-23T13:58:37.047Z,98851.95
2018-06-23T14:01:06.427Z,98850.71
2018-06-23T14:03:36.974Z,98847.83
2018-06-23T14:06:06.554Z,98848.61
2018-06-23T14:08:35.905Z,98854.66
2018-06-23T14:11:05.792Z,98850.72
2018-06-23T14:13:35.162Z,98854.52
2018-06-23T14:16:09.128Z,98856.36
2018-06-23T14:18:38.699Z,98846.15
2018-06-23T14:21:07.998Z,98852.83
2018-06-23T14:23:37.674Z,98849.28
2018-06-23T14:26:07.035Z,98852.81
2018-06-23T14:28:36.344Z,98849.55
2018-06-23T14:31:06.014Z,98849.99
2018-06-23T14:33:35.454Z,98844.19
2018-06-23T14:36:05.038Z,98847.59
2018-06-23T14:38:35.255Z,98843.59
2018-06-23T14:41:04.891Z,98843.30
2018-06-23T14:43:34.086Z,98845.73
2018-06-23T14:46:03.987Z,98831.05
2018-06-23T14:48:34.950Z,98843.75
2018-06-23T14:51:04.503Z,98836.42
2018-06-23T14:53:33.750Z,98840.80
2018-06-23T14:56:03.512Z,98846.72
2018-06-23T14:58:33.324Z,98846.05
2018-06-23T15:01:02.679Z,98836.71
2018-06-23T15:03:32.399Z,98833.06
2018-06-23T15:06:07.631Z,98833.15
2018-06-23T15:08:54.658Z,98835.02
2018-06-23T15:11:40.790Z,98837.16
2018-06-23T15:14:10.447Z,98829.82
2018-06-23T15:16:40.178Z,98830.22
2018-06-23T15:19:09.575Z,98823.93
2018-06-23T15:21:40.047Z,98819.21
2018-06-23T15:27:08.377Z,98818.20
2018-06-23T15:29:37.647Z,98821.98
2018-06-23T15:32:06.950Z,98827.55
2018-06-23T15:34:36.226Z,98823.41
2018-06-23T15:37:06.039Z,98813.20
2018-06-23T15:39:35.874Z,98810.19
2018-06-23T15:42:05.202Z,98802.56
2018-06-23T15:44:34.911Z,98811.09
2018-06-23T15:47:04.195Z,98807.23
2018-06-23T15:49:33.743Z,98808.53
2018-06-23T15:52:03.035Z,98804.69
2018-06-23T15:54:32.318Z,98804.91
2018-06-23T15:57:02.001Z,98795.80
2018-06-23T15:59:31.523Z,98800.66
2018-06-23T16:02:01.026Z,98800.69
2018-06-23T16:04:32.643Z,98801.81
2018-06-23T16:07:01.984Z,98793.16
2018-06-23T16:09:31.648Z,98792.95
2018-06-23T16:12:00.950Z,98799.08
2018-06-23T16:14:30.218Z,98792.40
2018-06-23T16:16:59.699Z,98792.48
2018-06-23T16:19:33.003Z,98787.93
2018-06-23T16:22:02.254Z,98787.16
2018-06-23T16:24:31.702Z,98782.27
2018-06-23T16:27:00.722Z,98785.22
2018-06-23T16:29:30.306Z,98780.83
2018-06-23T16:31:59.470Z,98784.93
2018-06-23T16:34:28.708Z,98779.13
2018-06-23T16:36:57.710Z,98769.50
2018-06-23T16:39:27.206Z,98776.55
2018-06-23T16:41:56.386Z,98776.14
2018-06-23T16:44:25.969Z,98765.38
2018-06-23T16:46:55.026Z,98759.88
2018-06-23T16:49:24.206Z,98770.83
2018-06-23T16:51:53.270Z,98764.45
2018-06-23T16:54:22.374Z,98759.39
2018-06-23T16:56:51.478Z,98758.10
2018-06-23T16:59:20.566Z,98759.15
2018-06-23T17:01:49.678Z,98758.23
2018-06-23T17:04:19.912Z,98754.74
2018-06-23T17:06:48.956Z,98758.81
2018-06-23T17:09:18.057Z,98756.74
2018-06-23T17:11:47.394Z,98761.98
2018-06-23T17:14:16.467Z,98758.80
2018-06-23T17:16:45.609Z,98764.66
2018-06-23T17:19:14.820Z,98766.11
2018-06-23T17:21:43.863Z,98770.11
2018-06-23T17:24:13.429Z,98767.42
2018-06-23T17:26:42.578Z,98762.59
2018-06-23T17:29:11.651Z,98767.05
2018-06-23T17:31:44.967Z,98769.59
2018-06-23T17:34:14.819Z,98770.36
2018-06-23T17:36:44.306Z,98763.23
2018-06-23T17:39:13.855Z,98772.11
2018-06-23T17:41:43.763Z,98767.62
2018-06-23T17:44:13.007Z,98773.13
2018-06-23T17:46:43.242Z,98770.14
2018-06-23T17:49:12.335Z,98773.23
2018-06-23T17:51:41.438Z,98771.48
2018-06-23T17:54:10.794Z,98777.83
2018-06-23T17:56:40.011Z,98776.42
2018-06-23T17:59:09.054Z,98781.13
2018-06-23T18:01:38.170Z,98789.96
2018-06-23T18:04:07.922Z,98780.61
2018-06-23T18:06:37.015Z,98784.84
2018-06-23T18:09:10.297Z,98782.21
2018-06-23T18:11:39.586Z,98784.09
2018-06-23T18:14:09.323Z,98787.52
2018-06-23T18:16:38.606Z,98784.92
2018-06-23T18:19:12.734Z,98786.00
2018-06-23T18:21:42.330Z,98783.21
2018-06-23T18:24:12.218Z,98788.61
2018-06-23T18:26:42.078Z,98791.95
2018-06-23T18:29:11.286Z,98793.69
2018-06-23T18:31:41.075Z,98791.68
2018-06-23T18:34:11.175Z,98796.02
2018-06-23T18:36:40.453Z,98802.13
2018-06-23T18:39:11.218Z,98799.49
2018-06-23T18:41:40.925Z,98807.79
2018-06-23T18:44:10.835Z,98792.18
2018-06-23T18:46:40.086Z,98796.27
2018-06-23T18:49:09.375Z,98798.49
2018-06-23T18:51:38.806Z,98808.00
2018-06-23T18:54:08.684Z,98802.51
2018-06-23T18:56:38.803Z,98802.00
2018-06-23T18:59:08.822Z,98810.05
2018-06-23T19:01:38.550Z,98810.48
2018-06-23T19:04:07.947Z,98814.45
2018-06-23T19:06:37.515Z,98806.77
2018-06-23T19:09:09.613Z,98810.80
2018-06-23T19:11:38.815Z,98815.33
2018-06-23T19:14:08.311Z,98813.94
2018-06-23T19:16:37.918Z,98819.80
2018-06-23T19:19:07.066Z,98815.55
2018-06-23T19:21:36.878Z,98812.94
2018-06-23T19:24:06.338Z,98816.20
2018-06-23T19:26:35.879Z,98811.34
2018-06-23T19:29:05.135Z,98816.22
2018-06-23T19:31:34.421Z,98815.06
2018-06-23T19:34:03.586Z,98821.35
2018-06-23T19:36:32.675Z,98828.88
2018-06-23T19:39:01.821Z,98826.50
2018-06-23T19:41:31.543Z,98834.81
2018-06-23T19:44:01.777Z,98834.50
2018-06-23T19:46:31.339Z,98836.19
2018-06-23T19:49:00.586Z,98839.77
2018-06-23T19:52:32.937Z,98837.80
2018-06-23T19:55:02.271Z,98839.80
2018-06-23T19:57:31.586Z,98840.02
2018-06-23T20:00:01.030Z,98841.02
2018-06-23T20:02:30.600Z,98846.77
2018-06-23T20:05:00.522Z,98840.25
2018-06-23T20:07:29.835Z,98845.78
2018-06-23T20:09:59.509Z,98852.20
2018-06-23T20:12:28.546Z,98849.46
2018-06-23T20:14:57.666Z,98847.39
2018-06-23T20:17:26.740Z,98845.51
2018-06-23T20:19:55.815Z,98841.77
2018-06-23T20:22:25.103Z,98842.55
2018-06-23T20:24:54.796Z,98845.51
2018-06-23T20:27:27.070Z,98848.28
2018-06-23T20:29:56.796Z,98850.95
2018-06-23T20:32:26.330Z,98853.13
2018-06-23T20:34:55.726Z,98845.83
2018-06-23T20:37:25.263Z,98850.66
2018-06-23T20:39:54.669Z,98845.11
2018-06-23T20:42:24.309Z,98844.05
2018-06-23T20:44:54.233Z,98843.94
2018-06-23T20:47:23.603Z,98844.05
2018-06-23T20:49:52.946Z,98841.87
2018-06-23T20:52:22.467Z,98849.16
2018-06-23T20:54:53.128Z,98852.14
2018-06-23T20:57:22.384Z,98852.61
2018-06-23T20:59:51.562Z,98857.66
2018-06-23T21:02:20.751Z,98852.61
2018-06-23T21:04:50.877Z,98855.47
2018-06-23T21:07:19.982Z,98854.55
2018-06-23T21:09:49.187Z,98851.59
2018-06-23T21:12:18.309Z,98857.19
2018-06-23T21:14:47.383Z,98852.73
2018-06-23T21:17:18.262Z,98859.83
2018-06-23T21:19:47.832Z,98857.65
2018-06-23T21:22:17.782Z,98857.81
2018-06-23T21:24:46.979Z,98856.04
2018-06-23T21:27:16.130Z,98857.92
2018-06-23T21:29:45.206Z,98850.37
2018-06-23T21:32:14.429Z,98856.33
2018-06-23T21:34:43.523Z,98856.09
2018-06-23T21:37:12.614Z,98854.20
2018-06-23T21:39:41.735Z,98854.63
2018-06-23T21:42:10.828Z,98850.92
2018-06-23T21:44:39.913Z,98847.72
2018-06-23T21:47:09.006Z,98845.87
2018-06-23T21:49:38.098Z,98846.41
2018-06-23T21:52:08.066Z,98850.81
2018-06-23T21:54:37.186Z,98849.75
2018-06-23T21:57:06.755Z,98850.13
2018-06-23T21:59:35.928Z,98847.98
2018-06-23T22:02:05.362Z,98846.91
2018-06-23T22:04:34.462Z,98849.47
2018-06-23T22:07:04.270Z,98852.38
2018-06-23T22:09:33.347Z,98851.13
2018-06-23T22:12:02.467Z,98848.53
2018-06-23T22:14:31.504Z,98848.80
2018-06-23T22:17:00.607Z,98849.09
2018-06-23T22:19:29.686Z,98845.30
2018-06-23T22:21:58.818Z,98850.36
2018-06-23T22:24:28.432Z,98847.45
2018-06-23T22:26:59.107Z,98844.07
2018-06-23T22:29:28.250Z,98845.73
2018-06-23T22:31:57.289Z,98847.19
2018-06-23T22:34:26.408Z,98851.51
2018-06-23T22:36:55.478Z,98843.70
2018-06-23T22:39:24.578Z,98844.86
2018-06-23T22:41:53.948Z,98841.82
2018-06-23T22:44:23.562Z,98847.89
2018-06-23T22:46:52.654Z,98849.64
2018-06-23T22:49:21.827Z,98847.36
2018-06-23T22:51:50.901Z,98843.81
2018-06-23T22:54:19.990Z,98848.78
2018-06-23T22:56:49.258Z,98845.67
2018-06-23T22:59:18.372Z,98844.21
2018-06-23T23:01:47.454Z,98843.34
2018-06-23T23:04:16.552Z,98841.40
2018-06-23T23:06:45.626Z,98842.31
2018-06-23T23:09:18.683Z,98843.59
2018-06-23T23:11:47.746Z,98838.33
2018-06-23T23:14:16.843Z,98836.20
2018-06-23T23:16:45.964Z,98836.01
2018-06-23T23:19:15.049Z,98837.16
2018-06-23T23:21:44.327Z,98836.16
2018-06-23T23:24:13.641Z,98836.39
2018-06-23T23:26:43.491Z,98840.25
2018-06-23T23:29:13.045Z,98838.54
2018-06-23T23:31:42.461Z,98836.12
2018-06-23T23:34:12.153Z,98835.98
2018-06-23T23:36:41.516Z,98834.70
2018-06-23T23:39:11.998Z,98831.80
2018-06-23T23:41:41.819Z,98826.98
2018-06-23T23:44:11.363Z,98830.39
2018-06-23T23:46:41.031Z,98822.63
2018-06-23T23:49:10.382Z,98821.49
2018-06-23T23:51:40.312Z,98830.29
2018-06-23T23:54:09.637Z,98819.81
2018-06-23T23:56:39.323Z,98817.73
2018-06-23T23:59:09.143Z,98817.68
